Terminal Aerodrome Forecast
Issued by NWS Cleveland, OH

Home | Current Version | Previous Version | Text Only | Print | Product List | Glossary Off
Versions: 1 2 3 4 5 6 7 8 9 10 11 12 13 14 15 16 17 18 19

000
FTUS41 KCLE 212300
TAFERI
TAF
KERI 212338Z 2200/2224 02010KT 6SM -SHRA OVC008
      TEMPO 2200/2201 4SM -SHRA
     FM220300 02010KT P6SM OVC015
     FM221300 01010KT P6SM OVC025
     FM221800 36010KT P6SM OVC035=

USA.gov is the U.S. government's official web portal to all federal, state and local government web resources and services.